ADDS METAR Data INFO
IDs: Format: Raw Decoded Include TAF

Data at: 0029 UTC 11 Dec 2017

KTQE 102354Z AUTO 32003KT 10SM CLR 05/M06 A3011 RMK AO2 SLP198 T00501056 10117 20044 53004
KTQE 102254Z AUTO 31004KT 10SM CLR 07/M06 A3010 RMK AO2 SLP196 T00721056
KTQE 102154Z AUTO 31007KT 10SM CLR 11/M04 A3009 RMK AO2 SLP192 T01061044
KTQE 102054Z AUTO 33015KT 10SM CLR 12/M04 A3009 RMK AO2 SLP192 T01171039 55002
KTQE 101954Z AUTO 32017G22KT 10SM CLR 11/M03 A3008 RMK AO2 SLP189 T01111033
KTQE 101854Z AUTO 32017KT 10SM CLR 11/M03 A3009 RMK AO2 SLP193 T01061033
KTQE 101754Z AUTO 33013KT 10SM CLR 10/M03 A3010 RMK AO2 SLP196 T01001033 10100 20000 50005
KTQE 101654Z AUTO 32013KT 10SM CLR 08/M03 A3010 RMK AO2 SLP199 T00781033
KTQE 101554Z AUTO 31012KT 10SM CLR 06/M03 A3010 RMK AO2 SLP200 T00611033
KTQE 101454Z AUTO 32007KT 10SM CLR 03/M04 A3009 RMK AO2 SLP196 T00331039 51022
KTQE 101354Z AUTO 29006KT 10SM CLR 01/M05 A3007 RMK AO2 SLP192 T00061050
KTQE 101254Z AUTO 33005KT 10SM CLR 01/M05 A3005 RMK AO2 SLP184 T00111050
KTQE 101154Z AUTO 33009KT 10SM CLR 02/M05 A3002 RMK AO2 SLP173 T00171050 10028 21044 53010
KTQE 101054Z AUTO 33010KT 10SM CLR 02/M05 A3001 RMK AO2 SLP167 T00221050
KTQE 100954Z AUTO 33005KT 10SM CLR 01/M06 A3000 RMK AO2 SLP165 T00111056
KTQE 100854Z AUTO 30008KT 10SM CLR 02/M06 A2999 RMK AO2 SLP160 T00171056 55003
KTQE 100754Z AUTO 13005KT 10SM CLR M03/M07 A2998 RMK AO2 SLP157 T10281072
KTQE 100654Z AUTO 27010KT 10SM CLR M01/M07 A2997 RMK AO2 WSHFT 0625 SLP156 T10111067
KTQE 100645Z AUTO 26011KT 10SM CLR M02/M07 A2998 RMK AO2 WSHFT 0625 T10171072
KTQE 100554Z AUTO 22009KT 10SM CLR M03/M08 A3000 RMK AO2 SLP167 T10331083 11033 21078 400221078 56026
KTQE 100454Z AUTO 15007KT 10SM CLR M06/M10 A3002 RMK AO2 SLP174 T10611100
KTQE 100354Z AUTO 14007KT 10SM CLR M07/M11 A3005 RMK AO2 SLP186 T10721111
KTQE 100254Z AUTO 18006KT 10SM CLR M08/M12 A3008 RMK AO2 SLP196 T10781117 58030
KTQE 100154Z AUTO 18004KT 10SM CLR M08/M12 A3012 RMK AO2 SLP210 T10781117
KTQE 100054Z AUTO 21007KT 10SM CLR M07/M11 A3013 RMK AO2 SLP213 T10671111
KTQE 092354Z AUTO 22003KT 10SM CLR M04/M10 A3017 RMK AO2 SLP226 T10441100 10022 21050 50001
KTQE 092254Z AUTO 30005KT 10SM CLR M01/M08 A3017 RMK AO2 SLP225 T10111083
KTQE 092154Z AUTO 31009KT 10SM CLR 02/M07 A3018 RMK AO2 SLP226 T00221072
KTQE 092054Z AUTO 32013KT 10SM CLR 02/M07 A3016 RMK AO2 SLP221 T00221067 56014
KTQE 091954Z AUTO 32013KT 10SM CLR 02/M07 A3017 RMK AO2 SLP223 T00221067
KTQE 091854Z AUTO 32009G17KT 10SM CLR 01/M07 A3018 RMK AO2 SLP226 T00111072
KTQE 091830Z AUTO 33011KT 10SM SCT028 01/M07 A3019 RMK AO2 T00111072
KTQE 091820Z AUTO 35008KT 10SM BKN027 01/M07 A3020 RMK AO2 T00061072
KTQE 091754Z AUTO 36008KT 10SM SCT026 00/M07 A3021 RMK AO2 SLP236 T00001072 10000 21039 50017
KTQE 091705Z AUTO 35011KT 10SM SCT022 M01/M07 A3021 RMK AO2 T10111072
KTQE 091654Z AUTO 36013KT 10SM BKN022 M02/M08 A3021 RMK AO2 SLP237 T10171078
KTQE 091554Z AUTO 01012KT 10SM OVC023 M03/M08 A3019 RMK AO2 SLP231 T10281078
KTQE 091454Z AUTO 36012KT 10SM OVC024 M03/M08 A3015 RMK AO2 SLP221 T10331078 53029
KTQE 091354Z AUTO 36016KT 10SM OVC022 M03/M08 A3013 RMK AO2 SLP212 T10331078
KTQE 091254Z AUTO 35014KT 10SM OVC024 M02/M07 A3009 RMK AO2 PK WND 35027/1234 SLP199 T10221067